Time;durP1;ratioP1;P1;durP2;ratioP2;P2;SDS_P1;SDS_P2;PMS_P1;PMS_P2;Temp;Humidity;BMP_temperature;BMP_pressure;BME280_temperature;BME280_humidity;BME280_pressure;Samples;Min_cycle;Max_cycle;Signal;HPM_P1;HPM_P2
2021/12/13 00:02:23;;;;;;;165.43;48.30;;;;;;;-2.16;92.94;101194.16;1697310;84;27349;-77
2021/12/13 00:05:07;;;;;;;172.35;44.70;;;;;;;-2.16;92.84;101195.48;1695214;84;25621;-76
2021/12/13 00:07:39;;;;;;;163.72;48.02;;;;;;;-2.18;92.84;101197.53;1698651;84;25565;-76
2021/12/13 00:10:17;;;;;;;170.02;46.53;;;;;;;-2.17;92.94;101196.48;1697989;84;25692;-76
2021/12/13 00:12:49;;;;;;;170.67;46.40;;;;;;;-2.16;92.97;101197.30;1698399;84;25629;-77
2021/12/13 00:15:24;;;;;;;165.15;45.63;;;;;;;-2.15;92.99;101198.94;1697997;84;28229;-76
2021/12/13 00:17:53;;;;;;;158.60;45.33;;;;;;;-2.16;92.90;101199.95;1697942;83;25569;-75
2021/12/13 00:20:29;;;;;;;162.20;45.95;;;;;;;-2.19;92.79;101191.09;1664943;86;25448;-75
2021/12/13 00:23:01;;;;;;;164.90;46.80;;;;;;;-2.19;92.83;101192.42;1664302;86;25624;-76
2021/12/13 00:25:30;;;;;;;163.77;44.67;;;;;;;-2.21;92.94;101194.44;1664848;86;25419;-76
2021/12/13 00:28:09;;;;;;;182.80;48.92;;;;;;;-2.21;93.06;101208.52;1641649;86;27341;-77
2021/12/13 00:31:05;;;;;;;166.53;43.90;;;;;;;-2.23;92.90;101211.05;1664791;86;25607;-77
2021/12/13 00:33:54;;;;;;;163.22;43.17;;;;;;;-2.25;92.98;101216.55;1664480;86;25585;-77
2021/12/13 00:37:00;;;;;;;167.15;44.55;;;;;;;-2.26;92.94;101204.34;1664668;86;25722;-77
2021/12/13 00:39:39;;;;;;;161.40;46.02;;;;;;;-2.26;92.96;101210.45;1664595;86;25431;-77
2021/12/13 00:42:07;;;;;;;193.07;46.00;;;;;;;-2.30;92.93;101211.88;1664580;86;27982;-77
2021/12/13 00:44:45;;;;;;;172.35;46.73;;;;;;;-2.32;93.03;101211.23;1664713;86;25550;-76
2021/12/13 00:47:28;;;;;;;160.97;46.92;;;;;;;-2.33;93.10;101205.64;1659280;86;25501;-77
2021/12/13 00:50:03;;;;;;;168.07;43.15;;;;;;;-2.31;93.32;101208.91;1641682;86;25574;-75
2021/12/13 00:52:34;;;;;;;157.47;44.80;;;;;;;-2.28;93.43;101211.68;1641088;86;25474;-76
2021/12/13 00:55:15;;;;;;;177.55;45.05;;;;;;;-2.31;93.28;101212.88;1664826;86;27925;-76
2021/12/13 00:58:01;;;;;;;173.20;43.50;;;;;;;-2.36;93.16;101210.53;1664664;86;25662;-76
2021/12/13 01:00:33;;;;;;;182.75;44.53;;;;;;;-2.37;93.35;101211.02;1655958;86;25431;-77
2021/12/13 01:03:24;;;;;;;179.75;44.18;;;;;;;-2.37;93.44;101215.00;1664759;86;26180;-77
2021/12/13 01:06:20;;;;;;;164.72;41.80;;;;;;;-2.38;93.45;101211.22;1664479;85;25644;-77
2021/12/13 01:09:21;;;;;;;169.45;45.48;;;;;;;-2.36;93.63;101211.34;1664806;86;27334;-77
2021/12/13 01:12:02;;;;;;;160.10;42.05;;;;;;;-2.37;93.60;101211.54;1664677;86;25565;-77
2021/12/13 01:17:59;;;;;;;162.75;43.87;;;;;;;-2.37;93.84;101207.56;1642279;87;25695;-76
2021/12/13 01:20:44;;;;;;;159.18;45.43;;;;;;;-2.37;93.84;101207.56;1669326;86;25584;-77
2021/12/13 01:23:12;;;;;;;167.82;43.65;;;;;;;-2.36;93.89;101210.53;1669315;86;27331;-75
2021/12/13 01:25:59;;;;;;;163.92;45.65;;;;;;;-2.36;93.93;101201.26;1668882;86;25787;-77
2021/12/13 01:28:31;;;;;;;165.15;40.90;;;;;;;-2.34;94.06;101193.41;1669454;86;25737;-77
2021/12/13 01:31:07;;;;;;;165.10;45.40;;;;;;;-2.34;93.93;101198.70;1669054;86;25639;-77
2021/12/13 01:33:39;;;;;;;169.43;44.42;;;;;;;-2.33;93.83;101188.94;1640018;87;25719;-78
2021/12/13 01:36:08;;;;;;;159.60;43.17;;;;;;;-2.32;93.83;101194.53;1669349;86;27358;-78
2021/12/13 01:38:45;;;;;;;167.95;46.58;;;;;;;-2.31;93.95;101193.01;1669626;86;25782;-78
2021/12/13 01:41:17;;;;;;;175.30;46.80;;;;;;;-2.29;93.98;101197.59;1669804;86;25814;-78
2021/12/13 01:43:50;;;;;;;167.95;42.33;;;;;;;-2.29;94.04;101202.89;1640798;87;25756;-77
2021/12/13 01:46:20;;;;;;;144.28;42.45;;;;;;;-2.25;94.20;101213.91;1640736;87;25699;-78
2021/12/13 01:48:48;;;;;;;125.72;35.73;;;;;;;-2.21;94.24;101222.27;1669491;86;27432;-78
2021/12/13 01:51:19;;;;;;;141.00;37.25;;;;;;;-2.18;94.19;101223.20;1654443;84;25370;-77
2021/12/13 01:54:06;;;;;;;142.10;39.03;;;;;;;-2.15;94.11;101212.19;1703958;84;25462;-78
2021/12/13 01:56:55;;;;;;;129.18;36.08;;;;;;;-2.12;93.94;101211.80;1703762;84;25629;-77
2021/12/13 02:02:23;;;;;;;126.50;36.00;;;;;;;-2.14;93.72;101209.34;1716575;83;27337;-78
2021/12/13 02:05:23;;;;;;;132.03;35.40;;;;;;;-2.11;93.77;101200.99;1688696;83;25337;-77
2021/12/13 02:08:10;;;;;;;114.28;33.40;;;;;;;-2.10;93.86;101203.13;1719264;83;25185;-77
2021/12/13 02:10:57;;;;;;;121.50;34.73;;;;;;;-2.08;93.92;101189.98;1715274;83;26183;-78
2021/12/13 02:13:42;;;;;;;124.07;35.45;;;;;;;-2.04;93.97;101193.05;1716824;83;25611;-78
2021/12/13 02:18:54;;;;;;;135.68;35.73;;;;;;;-1.99;93.84;101191.09;1673783;83;25712;-78
2021/12/13 02:21:30;;;;;;;140.97;39.03;;;;;;;-1.98;93.74;101188.76;1713542;83;25443;-78
2021/12/13 02:24:05;;;;;;;138.55;38.90;;;;;;;-1.98;93.74;101188.76;1713596;83;25812;-78
2021/12/13 02:26:35;;;;;;;144.85;38.45;;;;;;;-1.95;93.76;101192.33;1713753;83;25556;-78
2021/12/13 02:29:07;;;;;;;138.57;36.28;;;;;;;-1.93;93.83;101207.00;1713556;83;27365;-77
2021/12/13 02:31:38;;;;;;;139.57;38.13;;;;;;;-1.91;93.90;101208.13;1712109;83;25389;-77
2021/12/13 02:34:12;;;;;;;138.65;36.25;;;;;;;-1.88;93.87;101209.86;1682326;83;25665;-78
2021/12/13 02:36:52;;;;;;;135.40;38.23;;;;;;;-1.88;93.70;101195.28;1713539;83;25675;-77
2021/12/13 02:39:24;;;;;;;146.57;38.92;;;;;;;-1.86;93.46;101194.27;1713576;83;25575;-77
2021/12/13 02:41:52;;;;;;;131.43;35.40;;;;;;;-1.89;93.28;101197.64;1713567;83;27345;-77
2021/12/13 02:44:24;;;;;;;132.52;36.53;;;;;;;-1.91;93.21;101202.83;1713453;83;25574;-77
2021/12/13 02:46:58;;;;;;;136.05;37.20;;;;;;;-1.90;93.38;101201.82;1713581;83;25419;-77
2021/12/13 02:49:25;;;;;;;138.12;38.95;;;;;;;-1.90;93.41;101199.97;1713529;83;25624;-77
2021/12/13 02:51:56;;;;;;;132.37;37.90;;;;;;;-1.91;93.21;101204.99;1713650;83;25567;-77
2021/12/13 02:54:31;;;;;;;127.17;37.98;;;;;;;-1.92;93.14;101206.00;1713629;83;27378;-77
2021/12/13 02:57:11;;;;;;;139.75;35.58;;;;;;;-1.92;93.25;101199.37;1683483;83;25642;-77
2021/12/13 02:59:41;;;;;;;135.15;36.48;;;;;;;-1.91;93.34;101204.16;1713674;83;25471;-76
2021/12/13 03:02:21;;;;;;;128.23;36.33;;;;;;;-1.90;93.37;101203.14;1713495;83;25759;-76
2021/12/13 03:04:50;;;;;;;136.03;38.02;;;;;;;-1.88;93.46;101195.28;1712936;83;25567;-77
2021/12/13 03:07:22;;;;;;;124.33;37.85;;;;;;;-1.86;93.48;101202.23;1713544;83;28002;-78
2021/12/13 03:09:53;;;;;;;136.18;39.95;;;;;;;-1.85;93.47;101200.70;1713477;83;25555;-78
2021/12/13 03:12:24;;;;;;;141.10;37.78;;;;;;;-1.86;93.47;101189.77;1713568;83;25408;-77
2021/12/13 03:14:56;;;;;;;130.45;36.70;;;;;;;-1.84;93.40;101190.89;1713475;83;26156;-78
2021/12/13 03:17:30;;;;;;;144.30;38.23;;;;;;;-1.84;93.45;101193.03;1713511;83;25581;-77
2021/12/13 03:20:39;;;;;;;144.45;37.67;;;;;;;-1.82;93.40;101198.12;1713512;83;27345;-76
2021/12/13 03:23:28;;;;;;;139.85;38.88;;;;;;;-1.83;93.36;101192.54;1714214;83;25629;-79
2021/12/13 03:26:21;;;;;;;151.93;39.10;;;;;;;-1.81;93.36;101188.65;1713822;83;25429;-76
2021/12/13 03:29:19;;;;;;;136.28;38.38;;;;;;;-1.82;93.32;101191.02;1712931;83;26326;-75
2021/12/13 03:31:50;;;;;;;138.60;39.42;;;;;;;-1.81;93.31;101194.47;1682659;83;25578;-77
2021/12/13 03:34:25;;;;;;;145.40;38.58;;;;;;;-1.80;93.38;101194.27;1713874;83;27907;-77
2021/12/13 03:37:18;;;;;;;140.20;40.08;;;;;;;-1.80;93.34;101198.25;1713716;83;25481;-77
2021/12/13 03:39:59;;;;;;;144.75;40.33;;;;;;;-1.81;93.22;101208.54;1688969;83;25502;-76
2021/12/13 03:42:34;;;;;;;133.55;36.77;;;;;;;-1.81;93.26;101206.41;1689074;83;25640;-76
2021/12/13 03:45:06;;;;;;;134.27;40.03;;;;;;;-1.83;93.23;101201.30;1713481;83;25639;-77
2021/12/13 03:47:38;;;;;;;142.30;40.03;;;;;;;-1.82;93.21;101190.17;1713519;83;27365;-76
2021/12/13 03:50:10;;;;;;;122.72;36.48;;;;;;;-1.82;93.30;101187.03;1713440;83;25629;-75
2021/12/13 03:52:42;;;;;;;136.18;37.17;;;;;;;-1.81;93.10;101192.63;1713604;83;25394;-76
2021/12/13 03:55:11;;;;;;;136.07;38.15;;;;;;;-1.80;93.09;101196.11;1713647;83;25642;-78
2021/12/13 03:57:41;;;;;;;;;;;;;;;-1.83;93.01;101189.37;1716219;83;25618;-77
2021/12/13 04:00:10;;;;;;;;;;;;;;;-1.82;93.01;101200.30;1715839;83;27310;-77
2021/12/13 04:02:40;;;;;;;133.25;34.55;;;;;;;-1.84;93.01;101198.85;1713546;83;25824;-77
2021/12/13 04:05:11;;;;;;;;;;;;;;;-1.84;93.17;101196.20;1716083;83;25610;-77
2021/12/13 04:07:42;;;;;;;137.75;37.10;;;;;;;-1.83;93.23;101199.98;1713519;83;25679;-77
2021/12/13 04:10:14;;;;;;;132.72;36.75;;;;;;;-1.82;93.20;101194.98;1682408;83;25266;-79
2021/12/13 04:12:47;;;;;;;138.37;38.38;;;;;;;-1.82;93.13;101198.97;1713411;83;27888;-78
2021/12/13 04:15:46;;;;;;;130.60;33.23;;;;;;;-1.83;92.85;101198.66;1712785;83;25467;-77
2021/12/13 04:18:15;;;;;;;131.97;35.78;;;;;;;-1.81;92.79;101205.08;1711127;83;25666;-76
2021/12/13 04:20:44;;;;;;;131.60;34.35;;;;;;;-1.80;93.01;101207.53;1713479;83;35309;-77
2021/12/13 04:23:18;;;;;;;148.30;39.95;;;;;;;-1.80;92.96;101218.14;1713656;83;25419;-76
2021/12/13 04:25:50;;;;;;;143.55;39.85;;;;;;;-1.81;92.96;101214.37;1713495;83;27407;-77
2021/12/13 04:28:24;;;;;;;143.62;38.50;;;;;;;-1.82;92.95;101209.58;1713493;83;25415;-76
2021/12/13 04:30:56;;;;;;;149.62;36.38;;;;;;;-1.82;92.91;101204.27;1680813;83;25692;-76
2021/12/13 04:33:28;;;;;;;136.88;36.65;;;;;;;-1.82;92.63;101208.74;1713277;83;25829;-77
2021/12/13 04:36:03;;;;;;;134.20;38.40;;;;;;;-1.89;92.43;101207.41;1713344;83;25607;-77
2021/12/13 04:38:47;;;;;;;119.85;36.70;;;;;;;-1.92;92.47;101215.80;1715169;83;27314;-77
2021/12/13 04:41:08;;;;;;;;;;;;;;;-1.95;92.58;101223.63;1714895;83;25396;-76
2021/12/13 04:43:36;;;;;;;146.45;37.70;;;;;;;-1.94;92.85;101222.63;1713733;83;25561;-76
2021/12/13 04:46:06;;;;;;;141.50;38.75;;;;;;;-1.95;92.89;101223.63;1713737;83;25653;-77
2021/12/13 04:48:34;;;;;;;;;;;;;;;-1.94;93.22;101223.95;1691175;83;25479;-77
2021/12/13 04:51:15;;;;;;;136.40;35.52;;;;;;;-1.90;93.62;101218.54;1713725;83;27327;-77
2021/12/13 04:53:47;;;;;;;150.65;39.27;;;;;;;-1.88;93.60;101219.14;1713621;83;25559;-77
2021/12/13 04:56:22;;;;;;;139.80;37.95;;;;;;;-1.86;93.28;101222.11;1713614;83;25596;-77
2021/12/13 04:58:52;;;;;;;126.40;33.80;;;;;;;-1.86;92.99;101220.79;1713200;83;25695;-77
2021/12/13 05:01:22;;;;;;;123.35;35.52;;;;;;;-1.89;92.81;101214.88;1713858;83;25565;-76
2021/12/13 05:03:53;;;;;;;139.47;33.53;;;;;;;-1.91;92.62;101226.70;1684177;83;27016;-76
2021/12/13 05:06:28;;;;;;;144.47;36.42;;;;;;;-1.94;92.51;101229.75;1685192;83;25654;-75
2021/12/13 05:08:58;;;;;;;120.72;35.30;;;;;;;-1.96;92.53;101229.98;1713797;83;25529;-76
2021/12/13 05:11:33;;;;;;;126.20;36.77;;;;;;;-1.97;92.66;101237.61;1713579;83;26310;-77
2021/12/13 05:14:01;;;;;;;151.42;37.33;;;;;;;-1.98;92.78;101239.95;1713655;83;25474;-78
2021/12/13 05:16:43;;;;;;;141.33;35.80;;;;;;;-1.96;92.90;101239.74;1713872;83;27348;-77
2021/12/13 05:19:14;;;;;;;127.17;35.92;;;;;;;-1.98;92.78;101235.97;1716395;83;25723;-75
2021/12/13 05:21:45;;;;;;;124.55;34.75;;;;;;;-2.00;92.67;101232.70;1716549;83;25544;-76
2021/12/13 05:24:20;;;;;;;135.72;36.50;;;;;;;-1.99;92.72;101234.84;1716356;83;25611;-76
2021/12/13 05:27:07;;;;;;;122.62;35.50;;;;;;;-2.00;92.83;101234.03;1716446;83;25448;-75
2021/12/13 05:29:40;;;;;;;115.50;32.45;;;;;;;-2.04;92.57;101223.54;1715781;83;27420;-76
2021/12/13 05:32:33;;;;;;;124.42;33.28;;;;;;;-2.05;92.57;101216.59;1693828;83;25490;-76
2021/12/13 05:35:23;;;;;;;123.50;32.20;;;;;;;-2.06;92.58;101222.90;1716408;83;25450;-77
2021/12/13 05:37:54;;;;;;;123.82;33.60;;;;;;;-2.07;92.67;101223.94;1716366;83;26176;-76
2021/12/13 05:40:41;;;;;;;101.58;34.10;;;;;;;-2.08;92.68;101222.30;1715808;83;25629;-77
2021/12/13 05:43:28;;;;;;;109.63;28.95;;;;;;;-2.08;92.66;101230.25;1716419;83;27317;-75
2021/12/13 05:46:15;;;;;;;102.35;31.48;;;;;;;-2.11;92.54;101231.48;1716356;83;25455;-77
2021/12/13 05:48:47;;;;;;;97.05;29.80;;;;;;;-2.15;92.43;101236.86;1715083;83;25564;-77
2021/12/13 05:51:25;;;;;;;99.30;29.02;;;;;;;-2.16;92.39;101241.88;1716356;83;26204;-77
2021/12/13 05:54:02;;;;;;;102.10;31.50;;;;;;;-2.18;92.37;101244.40;1716508;83;25564;-77
2021/12/13 05:56:37;;;;;;;97.90;27.67;;;;;;;-2.20;92.46;101248.58;1716470;83;28517;-77
2021/12/13 05:59:23;;;;;;;108.75;30.68;;;;;;;-2.18;92.64;101259.81;1716324;83;25386;-77
2021/12/13 06:02:01;;;;;;;100.58;29.30;;;;;;;-2.17;92.79;101264.08;1716424;83;25628;-77
2021/12/13 06:04:39;;;;;;;102.90;29.05;;;;;;;-2.19;92.55;101265.31;1716436;83;25776;-76
2021/12/13 06:07:18;;;;;;;97.37;29.67;;;;;;;-2.20;92.59;101263.67;1716473;83;25394;-76
2021/12/13 06:10:09;;;;;;;107.67;30.40;;;;;;;-2.19;92.84;101257.37;1716411;83;27945;-75
2021/12/13 06:12:57;;;;;;;103.83;30.60;;;;;;;-2.18;92.84;101264.28;1716162;83;25438;-76
2021/12/13 06:15:28;;;;;;;99.95;30.10;;;;;;;-2.17;92.82;101272.03;1715122;83;25637;-75
2021/12/13 06:18:18;;;;;;;106.30;28.45;;;;;;;-2.16;92.70;101282.13;1714032;83;26397;-76
2021/12/13 06:21:08;;;;;;;96.90;28.70;;;;;;;-2.18;92.65;101284.16;1713839;83;25389;-75
2021/12/13 06:23:38;;;;;;;112.57;30.23;;;;;;;-2.20;92.56;101287.53;1712881;83;27350;-75
2021/12/13 06:26:14;;;;;;;91.08;28.07;;;;;;;-2.23;92.52;101287.44;1713561;83;25696;-75
2021/12/13 06:28:45;;;;;;;102.50;28.17;;;;;;;-2.22;92.79;101291.70;1713606;83;25442;-76
2021/12/13 06:31:19;;;;;;;103.17;27.65;;;;;;;-2.22;92.80;101295.67;1713641;83;25541;-76
2021/12/13 06:34:00;;;;;;;102.07;28.65;;;;;;;-2.24;92.54;101293.73;1713678;83;25641;-76
2021/12/13 06:36:44;;;;;;;114.50;30.95;;;;;;;-2.26;92.61;101295.78;1686815;85;27417;-76
2021/12/13 06:39:16;;;;;;;90.28;27.07;;;;;;;-2.28;92.49;101296.49;1687205;85;25579;-76
2021/12/13 06:41:54;;;;;;;97.88;28.32;;;;;;;-2.33;92.72;101293.10;1687305;85;25228;-75
2021/12/13 06:44:31;;;;;;;94.77;26.87;;;;;;;-2.30;92.73;101293.20;1686260;85;25713;-75
2021/12/13 06:47:06;;;;;;;85.87;28.20;;;;;;;-2.33;92.58;101290.45;1687237;85;25603;-75
2021/12/13 06:49:38;;;;;;;89.85;27.02;;;;;;;-2.32;92.62;101301.86;1687541;85;27358;-76
2021/12/13 06:52:13;;;;;;;86.12;28.23;;;;;;;-2.32;92.67;101299.21;1686811;85;26014;-75
2021/12/13 06:55:03;;;;;;;87.12;26.35;;;;;;;-2.32;92.79;101300.53;1685878;85;25745;-76
2021/12/13 06:57:54;;;;;;;87.65;27.17;;;;;;;-2.30;92.87;101317.89;1686895;85;25645;-76
2021/12/13 07:00:29;;;;;;;86.12;28.40;;;;;;;-2.28;92.96;101313.20;1687278;85;25723;-76
2021/12/13 07:03:04;;;;;;;93.87;25.72;;;;;;;-2.26;92.99;101316.47;1686963;85;27462;-75
2021/12/13 07:05:45;;;;;;;82.62;27.20;;;;;;;-2.25;92.72;101318.59;1687082;85;25643;-75
2021/12/13 07:08:35;;;;;;;91.97;26.85;;;;;;;-2.29;92.57;101320.83;1687074;85;25606;-76
2021/12/13 07:11:05;;;;;;;;;;;;;;;-2.27;92.59;101317.98;1689850;85;25817;-76
2021/12/13 07:13:41;;;;;;;84.42;27.27;;;;;;;-2.26;92.62;101319.63;1699814;83;25614;-75
2021/12/13 07:16:14;;;;;;;84.77;28.57;;;;;;;-2.28;92.80;101321.16;1713608;83;28044;-76
2021/12/13 07:19:01;;;;;;;86.35;27.02;;;;;;;-2.26;92.94;101331.05;1682916;83;25455;-76
2021/12/13 07:21:37;;;;;;;92.40;28.67;;;;;;;-2.24;93.02;101334.02;1710417;83;25593;-76
2021/12/13 07:24:15;;;;;;;92.95;27.50;;;;;;;-2.22;93.15;101338.61;1711068;83;25629;-76
2021/12/13 07:26:59;;;;;;;91.53;28.07;;;;;;;-2.19;93.16;101344.84;1711515;83;25529;-76
2021/12/13 07:29:49;;;;;;;78.62;26.57;;;;;;;-2.20;93.07;101343.19;1711493;83;28037;-75
2021/12/13 07:32:39;;;;;;;78.20;26.62;;;;;;;-2.19;92.95;101348.30;1707427;83;25395;-75
2021/12/13 07:35:13;;;;;;;77.87;24.57;;;;;;;-2.18;92.86;101352.59;1710576;83;25533;-76
2021/12/13 07:37:54;;;;;;;83.62;26.50;;;;;;;-2.17;92.88;101348.91;1711401;83;26181;-76
2021/12/13 07:40:43;;;;;;;79.90;24.92;;;;;;;-2.15;92.99;101350.84;1710612;83;25563;-77
2021/12/13 07:43:30;;;;;;;91.90;26.10;;;;;;;-2.12;92.88;101353.62;1711716;83;27332;-77
2021/12/13 07:46:05;;;;;;;94.97;28.50;;;;;;;-2.11;92.81;101353.92;1711421;83;25569;-76
2021/12/13 07:48:42;;;;;;;88.55;29.10;;;;;;;-2.11;92.76;101357.89;1712093;83;25561;-76
2021/12/13 07:51:18;;;;;;;89.65;26.62;;;;;;;-2.09;92.85;101359.86;1689381;83;26239;-76
2021/12/13 07:53:59;;;;;;;89.03;28.77;;;;;;;-2.06;93.05;101358.12;1711714;83;25633;-76
2021/12/13 07:56:43;;;;;;;95.95;28.75;;;;;;;-2.01;93.24;101354.88;1711570;83;27473;-76
2021/12/13 07:59:26;;;;;;;98.03;29.52;;;;;;;-1.97;93.31;101366.74;1711692;83;25551;-77
2021/12/13 08:02:08;;;;;;;89.28;29.23;;;;;;;-1.94;93.33;101363.17;1711732;83;25617;-76
2021/12/13 08:04:52;;;;;;;104.12;30.15;;;;;;;-1.91;93.18;101366.77;1714040;83;25632;-76
2021/12/13 08:07:30;;;;;;;87.55;28.40;;;;;;;-1.91;92.94;101368.58;1713420;83;25252;-76
2021/12/13 08:10:05;;;;;;;90.28;29.12;;;;;;;-1.90;92.76;101368.90;1711606;83;27323;-77
2021/12/13 08:12:46;;;;;;;90.95;27.73;;;;;;;-1.89;92.82;101370.03;1709911;83;25576;-77
2021/12/13 08:15:21;;;;;;;90.00;28.47;;;;;;;-1.93;92.30;101361.34;1711586;83;25422;-77
2021/12/13 08:17:58;;;;;;;89.80;25.68;;;;;;;-1.99;92.03;101365.61;1711879;83;25633;-77
2021/12/13 08:20:36;;;;;;;84.85;26.42;;;;;;;-2.00;92.28;101366.61;1714466;83;25481;-77
2021/12/13 08:23:14;;;;;;;91.08;29.50;;;;;;;-2.03;92.15;101370.17;1712436;83;27535;-76
2021/12/13 08:25:42;;;;;;;94.55;27.95;;;;;;;-2.08;92.14;101364.97;1713767;83;25200;-74
2021/12/13 08:28:13;;;;;;;98.40;28.05;;;;;;;-2.07;92.29;101365.78;1714041;83;25636;-76
2021/12/13 08:30:50;;;;;;;87.47;25.32;;;;;;;-2.07;92.45;101367.11;1715035;83;26275;-76
2021/12/13 08:33:43;;;;;;;96.78;28.77;;;;;;;-2.04;92.77;101364.55;1715990;83;25200;-76
2021/12/13 08:36:15;;;;;;;96.10;29.10;;;;;;;-2.02;92.94;101363.35;1715274;83;27342;-76
2021/12/13 08:38:52;;;;;;;86.45;27.75;;;;;;;-1.98;92.92;101375.19;1715689;83;25316;-76
2021/12/13 08:41:24;;;;;;;90.85;27.65;;;;;;;-1.95;93.03;101370.00;1713435;83;25587;-76
2021/12/13 08:43:59;;;;;;;85.50;26.17;;;;;;;-1.90;93.02;101376.34;1712664;83;26993;-76
2021/12/13 08:46:43;;;;;;;89.03;26.05;;;;;;;-1.89;92.89;101375.81;1713811;83;25415;-76
2021/12/13 08:49:24;;;;;;;86.08;26.50;;;;;;;-1.87;92.72;101371.16;1714338;83;27322;-76
2021/12/13 08:52:23;;;;;;;89.32;26.73;;;;;;;-1.85;92.74;101362.48;1713515;83;25611;-77
2021/12/13 08:55:13;;;;;;;94.55;29.72;;;;;;;-1.85;92.39;101370.44;1713836;83;25402;-75
2021/12/13 08:58:07;;;;;;;89.42;27.17;;;;;;;-1.84;92.43;101363.30;1713735;83;25717;-76
2021/12/13 09:00:45;;;;;;;93.67;28.02;;;;;;;-1.83;92.66;101363.09;1706216;83;25890;-76
2021/12/13 09:03:26;;;;;;;92.27;29.10;;;;;;;-1.80;92.64;101360.05;1713528;83;27281;-76
2021/12/13 09:06:21;;;;;;;82.47;27.50;;;;;;;-1.78;92.60;101362.50;1713328;83;25414;-77
2021/12/13 09:09:07;;;;;;;86.53;28.38;;;;;;;-1.77;92.49;101362.30;1713782;83;25510;-77
2021/12/13 09:11:59;;;;;;;92.20;28.05;;;;;;;-1.77;92.33;101362.80;1713832;83;26133;-76
2021/12/13 09:14:39;;;;;;;79.58;27.07;;;;;;;-1.78;92.20;101367.29;1713319;83;25541;-75
2021/12/13 09:17:26;;;;;;;92.62;27.62;;;;;;;-1.78;92.28;101369.94;1713672;83;27313;-75
2021/12/13 09:20:21;;;;;;;90.55;29.15;;;;;;;-1.77;92.48;101372.92;1716979;83;25445;-76
2021/12/13 09:22:53;;;;;;;79.72;28.20;;;;;;;-1.76;92.53;101373.72;1716069;83;25652;-76
2021/12/13 09:25:33;;;;;;;84.70;26.25;;;;;;;-1.72;92.55;101376.27;1716488;83;26211;-76
2021/12/13 09:28:05;;;;;;;124.82;40.20;;;;;;;-1.71;92.60;101372.61;1716376;83;25655;-76
2021/12/13 09:30:46;;;;;;;204.55;75.60;;;;;;;-1.66;92.71;101371.50;1716080;83;27893;-76
2021/12/13 09:33:24;;;;;;;96.87;33.13;;;;;;;-1.61;92.87;101371.72;1716507;83;25550;-77
2021/12/13 09:36:07;;;;;;;89.85;28.90;;;;;;;-1.58;92.71;101366.53;1716370;83;25561;-75
2021/12/13 09:39:04;;;;;;;87.45;28.95;;;;;;;-1.56;92.67;101363.97;1716384;83;25622;-75
2021/12/13 09:41:43;;;;;;;92.42;28.35;;;;;;;-1.54;92.44;101364.58;1716171;83;25468;-76
2021/12/13 09:44:17;;;;;;;92.50;27.87;;;;;;;-1.51;92.50;101363.38;1716452;83;27322;-75
2021/12/13 09:47:10;;;;;;;86.50;27.00;;;;;;;-1.49;92.42;101363.98;1716202;83;25778;-76
2021/12/13 09:49:48;;;;;;;87.15;28.17;;;;;;;-1.51;92.14;101360.20;1716979;83;25561;-76
2021/12/13 09:52:40;;;;;;;95.28;30.75;;;;;;;-1.49;92.16;101361.33;1716364;83;26381;-76
2021/12/13 09:55:18;;;;;;;86.12;28.35;;;;;;;-1.50;92.16;101363.66;1716481;83;25567;-76
2021/12/13 09:58:09;;;;;;;86.57;27.73;;;;;;;-1.49;92.45;101363.17;1693917;83;27363;-75
2021/12/13 10:00:50;;;;;;;77.82;29.42;;;;;;;-1.43;92.60;101366.32;1716390;83;25570;-75
2021/12/13 10:03:22;;;;;;;77.85;27.37;;;;;;;-1.46;91.99;101365.39;1716108;83;25585;-76
2021/12/13 10:05:53;;;;;;;78.62;28.42;;;;;;;-1.50;91.66;101362.33;1709048;83;25619;-76
2021/12/13 10:08:40;;;;;;;86.78;29.05;;;;;;;-1.53;91.60;101361.44;1708392;83;25412;-75
2021/12/13 10:11:12;;;;;;;93.52;30.10;;;;;;;-1.56;91.56;101361.31;1708333;84;27445;-76
2021/12/13 10:13:40;;;;;;;73.97;26.75;;;;;;;-1.57;91.54;101358.34;1708351;84;25549;-75
2021/12/13 10:16:11;;;;;;;85.12;27.75;;;;;;;-1.55;91.78;101361.63;1708384;84;25683;-75
2021/12/13 10:18:42;;;;;;;89.47;29.37;;;;;;;-1.52;91.98;101356.41;1693727;82;25636;-74
2021/12/13 10:21:23;;;;;;;94.65;30.60;;;;;;;-1.49;92.28;101357.86;1687781;85;25641;-75
2021/12/13 10:23:54;;;;;;;92.00;29.77;;;;;;;-1.44;92.29;101350.92;1687805;85;27305;-76
2021/12/13 10:26:25;;;;;;;89.58;29.63;;;;;;;-1.43;92.18;101349.07;1687722;84;25600;-75
2021/12/13 10:28:56;;;;;;;110.63;38.88;;;;;;;-1.39;92.14;101352.97;1687718;84;25424;-76
2021/12/13 10:31:34;;;;;;;89.45;32.13;;;;;;;-1.36;92.17;101357.88;1670823;85;25677;-77
2021/12/13 10:34:06;;;;;;;91.02;31.30;;;;;;;-1.31;92.37;101354.10;1687863;85;25409;-74
2021/12/13 10:36:36;;;;;;;87.33;28.55;;;;;;;-1.27;92.26;101361.95;1687733;83;27330;-75
2021/12/13 10:39:08;;;;;;;92.08;30.37;;;;;;;-1.26;91.93;101358.78;1687637;84;25627;-75
2021/12/13 10:41:42;;;;;;;85.57;29.75;;;;;;;-1.24;91.68;101364.70;1687169;84;25441;-75
2021/12/13 10:44:14;;;;;;;79.30;27.22;;;;;;;-1.24;91.77;101364.20;1687846;85;26173;-75
2021/12/13 10:46:46;;;;;;;98.45;29.00;;;;;;;-1.18;92.03;101362.56;1687898;85;25710;-75
2021/12/13 10:49:24;;;;;;;89.70;31.37;;;;;;;-1.15;91.79;101359.50;1688329;85;27327;-76
2021/12/13 10:51:58;;;;;;;91.63;30.35;;;;;;;-1.14;91.80;101357.98;1687803;84;25750;-76
2021/12/13 10:54:36;;;;;;;97.27;32.17;;;;;;;-1.12;91.74;101359.10;1671573;85;25634;-76
2021/12/13 10:57:11;;;;;;;92.15;31.68;;;;;;;-1.07;92.04;101350.50;1687729;84;25636;-75
2021/12/13 10:59:38;;;;;;;91.72;31.85;;;;;;;-1.02;92.21;101348.05;1687319;84;25655;-76
2021/12/13 11:02:16;;;;;;;88.62;31.52;;;;;;;-1.00;91.74;101356.64;1688265;85;27324;-75
2021/12/13 11:04:47;;;;;;;89.40;30.45;;;;;;;-1.02;91.45;101352.86;1690052;84;25410;-75
2021/12/13 11:07:14;;;;;;;92.47;30.05;;;;;;;-0.99;91.50;101354.27;1688035;84;25212;-76
2021/12/13 11:09:43;;;;;;;88.75;29.48;;;;;;;-0.97;91.45;101352.22;1687710;85;25638;-76
2021/12/13 11:12:18;;;;;;;91.97;30.88;;;;;;;-1.01;90.95;101349.17;1687917;85;25219;-77
2021/12/13 11:14:49;;;;;;;85.50;30.57;;;;;;;-1.04;90.65;101343.45;1687717;84;27523;-77
2021/12/13 11:17:20;;;;;;;88.33;31.65;;;;;;;-1.10;90.48;101345.10;1687642;85;25446;-76
2021/12/13 11:19:52;;;;;;;88.58;30.68;;;;;;;-1.16;90.51;101341.44;1674994;84;25642;-76
2021/12/13 11:22:24;;;;;;;86.08;29.72;;;;;;;-1.21;90.40;101348.36;1676509;84;26193;-76
2021/12/13 11:24:56;;;;;;;86.87;30.15;;;;;;;-1.24;90.46;101346.95;1676453;84;25619;-78
2021/12/13 11:27:30;;;;;;;90.90;30.60;;;;;;;-1.25;90.63;101348.48;1690659;84;28003;-76
2021/12/13 11:29:56;;;;;;;94.35;31.90;;;;;;;-1.26;90.92;101349.00;1690530;84;25612;-75
2021/12/13 11:33:01;;;;;;;94.80;31.93;;;;;;;-1.22;91.29;101346.75;1690724;84;25399;-76
2021/12/13 11:36:09;;;;;;;84.30;29.55;;;;;;;-1.17;91.53;101346.95;1690708;84;26133;-76
2021/12/13 11:39:23;;;;;;;80.28;28.25;;;;;;;-1.13;91.52;101343.66;1690672;84;25558;-73
2021/12/13 11:42:29;;;;;;;89.42;31.97;;;;;;;-1.14;91.13;101335.41;1690666;84;28048;-73
2021/12/13 11:45:25;;;;;;;90.03;31.42;;;;;;;-1.14;91.01;101340.72;1690655;84;25618;-73
2021/12/13 11:48:37;;;;;;;84.72;27.70;;;;;;;-1.14;91.07;101331.94;1676283;84;25619;-73
2021/12/13 11:51:32;;;;;;;90.47;30.25;;;;;;;-1.12;91.29;101341.84;1690579;84;25737;-72
2021/12/13 11:54:41;;;;;;;76.00;28.12;;;;;;;-1.11;90.95;101343.98;1690814;84;25577;-73
2021/12/13 11:57:33;;;;;;;82.97;28.47;;;;;;;-1.15;90.54;101355.52;1676542;84;27283;-72
2021/12/13 12:00:40;;;;;;;73.97;28.10;;;;;;;-1.16;90.88;101353.88;1676213;84;25459;-73
2021/12/13 12:03:48;;;;;;;82.92;28.10;;;;;;;-1.14;90.62;101358.50;1690758;84;25407;-73
2021/12/13 12:06:55;;;;;;;82.78;28.65;;;;;;;-1.15;90.64;101359.50;1690760;84;25629;-72
2021/12/13 12:10:04;;;;;;;84.67;31.65;;;;;;;-1.12;90.77;101356.45;1690911;84;25471;-72